createdAt,value
2023-05-07T00:01:00.740Z,7.37
2023-05-07T00:03:32.417Z,6.77
2023-05-07T00:06:04.328Z,7.90
2023-05-07T00:08:35.580Z,7.00
2023-05-07T00:11:06.953Z,6.97
2023-05-07T00:13:38.294Z,7.20
2023-05-07T00:16:09.732Z,6.67
2023-05-07T00:18:41.125Z,7.30
2023-05-07T00:21:12.541Z,6.73
2023-05-07T00:23:43.802Z,6.73
2023-05-07T00:26:15.067Z,7.43
2023-05-07T00:28:46.425Z,6.40
2023-05-07T00:31:17.782Z,7.43
2023-05-07T00:33:49.062Z,6.77
2023-05-07T00:36:20.345Z,6.67
2023-05-07T00:38:51.629Z,7.13
2023-05-07T00:41:23.466Z,6.10
2023-05-07T00:43:54.724Z,6.80
2023-05-07T00:46:26.878Z,5.80
2023-05-07T00:48:58.923Z,5.30
2023-05-07T00:51:31.630Z,6.30
2023-05-07T00:54:04.043Z,5.77
2023-05-07T00:56:35.718Z,5.33
2023-05-07T00:59:07.292Z,5.47
2023-05-07T01:01:38.787Z,5.53
2023-05-07T01:04:10.295Z,5.03
2023-05-07T01:06:42.633Z,6.20
2023-05-07T01:09:14.936Z,5.23
2023-05-07T01:11:47.120Z,5.77
2023-05-07T01:14:19.345Z,5.27
2023-05-07T01:16:52.013Z,5.27
2023-05-07T01:19:23.473Z,5.47
2023-05-07T01:22:03.423Z,4.77
2023-05-07T01:24:37.281Z,5.67
2023-05-07T01:27:08.570Z,5.07
2023-05-07T01:29:39.944Z,5.50
2023-05-07T01:32:12.607Z,5.20
2023-05-07T01:34:47.338Z,5.33
2023-05-07T01:37:18.643Z,6.50
2023-05-07T01:39:49.992Z,5.60
2023-05-07T01:42:22.483Z,5.50
2023-05-07T01:44:53.783Z,5.83
2023-05-07T01:47:26.346Z,5.83
2023-05-07T01:49:58.887Z,5.40
2023-05-07T01:52:30.230Z,4.90
2023-05-07T01:55:01.514Z,6.53
2023-05-07T01:57:32.860Z,5.03
2023-05-07T02:00:06.027Z,5.47
2023-05-07T02:02:39.121Z,5.10
2023-05-07T02:05:10.917Z,5.10
2023-05-07T02:07:42.357Z,5.30
2023-05-07T02:10:13.908Z,5.50
2023-05-07T02:12:45.611Z,5.20
2023-05-07T02:15:17.020Z,5.30
2023-05-07T02:18:05.053Z,5.23
2023-05-07T02:20:36.537Z,4.73
2023-05-07T02:23:07.962Z,4.10
2023-05-07T02:25:39.292Z,4.87
2023-05-07T02:28:10.620Z,4.90
2023-05-07T02:30:42.053Z,4.57
2023-05-07T02:33:14.885Z,4.47
2023-05-07T02:35:46.294Z,4.20
2023-05-07T02:38:17.630Z,5.33
2023-05-07T02:40:48.978Z,4.87
2023-05-07T02:43:20.255Z,4.33
2023-05-07T02:46:02.668Z,4.67
2023-05-07T02:48:34.372Z,4.77
2023-05-07T02:51:06.472Z,4.43
2023-05-07T02:53:37.781Z,4.63
2023-05-07T02:56:09.101Z,4.20
2023-05-07T02:58:40.603Z,4.47
2023-05-07T03:01:12.343Z,5.47
2023-05-07T03:03:43.751Z,5.40
2023-05-07T03:06:15.056Z,4.07
2023-05-07T03:08:46.313Z,4.83
2023-05-07T03:11:17.672Z,4.83
2023-05-07T03:13:50.409Z,5.03
2023-05-07T03:16:21.767Z,5.73
2023-05-07T03:18:53.156Z,4.83
2023-05-07T03:21:24.584Z,5.27
2023-05-07T03:23:55.926Z,5.10
2023-05-07T03:26:27.292Z,5.33
2023-05-07T03:28:58.551Z,4.97
2023-05-07T03:31:29.993Z,5.73
2023-05-07T03:34:01.302Z,5.73
2023-05-07T03:36:32.642Z,5.30
2023-05-07T03:39:03.924Z,6.00
2023-05-07T03:41:35.287Z,5.70
2023-05-07T03:44:06.922Z,5.40
2023-05-07T03:46:38.805Z,5.60
2023-05-07T03:49:10.212Z,5.83
2023-05-07T03:51:41.509Z,6.60
2023-05-07T03:54:12.893Z,5.73
2023-05-07T03:56:44.223Z,6.67
2023-05-07T03:59:15.659Z,6.07
2023-05-07T04:01:47.125Z,6.07
2023-05-07T04:04:18.540Z,5.60
2023-05-07T04:06:50.077Z,5.43
2023-05-07T04:09:21.498Z,5.60
2023-05-07T04:11:52.777Z,6.00
2023-05-07T04:14:24.059Z,5.80
2023-05-07T04:16:55.594Z,6.03
2023-05-07T04:19:26.977Z,5.77
2023-05-07T04:21:58.247Z,5.70
2023-05-07T04:24:33.921Z,5.97
2023-05-07T04:27:05.365Z,6.60
2023-05-07T04:29:36.716Z,6.60
2023-05-07T04:32:08.035Z,6.30
2023-05-07T04:34:39.329Z,6.37
2023-05-07T04:37:10.905Z,5.80
2023-05-07T04:39:42.165Z,6.27
2023-05-07T04:42:17.296Z,6.60
2023-05-07T04:44:48.556Z,6.93
2023-05-07T04:47:19.829Z,5.83
2023-05-07T04:49:51.106Z,6.13
2023-05-07T04:52:22.423Z,6.73
2023-05-07T04:54:53.759Z,6.17
2023-05-07T04:57:25.030Z,6.47
2023-05-07T04:59:56.316Z,5.97
2023-05-07T05:02:27.744Z,6.30
2023-05-07T05:05:00.019Z,5.70
2023-05-07T05:07:31.323Z,5.80
2023-05-07T05:10:04.029Z,6.33
2023-05-07T05:12:35.434Z,6.13
2023-05-07T05:15:07.475Z,6.60
2023-05-07T05:17:38.949Z,6.00
2023-05-07T05:20:11.977Z,6.37
2023-05-07T05:22:43.613Z,6.40
2023-05-07T05:25:14.948Z,5.77
2023-05-07T05:27:46.369Z,5.97
2023-05-07T05:30:17.678Z,6.87
2023-05-07T05:32:49.067Z,5.43
2023-05-07T05:35:20.374Z,5.63
2023-05-07T05:37:51.709Z,5.20
2023-05-07T05:40:23.005Z,5.80
2023-05-07T05:42:54.273Z,6.47
2023-05-07T05:45:25.672Z,6.07
2023-05-07T05:47:57.680Z,6.43
2023-05-07T05:50:29.025Z,7.33
2023-05-07T05:53:00.618Z,5.57
2023-05-07T05:55:33.364Z,6.43
2023-05-07T05:58:04.747Z,5.50
2023-05-07T06:00:36.170Z,6.23
2023-05-07T06:03:07.839Z,5.43
2023-05-07T06:05:39.165Z,6.20
2023-05-07T06:08:10.533Z,5.87
2023-05-07T06:10:42.083Z,6.00
2023-05-07T06:13:13.382Z,5.70
2023-05-07T06:15:44.779Z,5.93
2023-05-07T06:18:16.127Z,5.90
2023-05-07T06:20:47.485Z,5.97
2023-05-07T06:23:18.846Z,5.70
2023-05-07T06:25:53.612Z,6.03
2023-05-07T06:28:25.028Z,5.50
2023-05-07T06:30:56.496Z,6.40
2023-05-07T06:33:27.754Z,5.70
2023-05-07T06:35:59.016Z,6.20
2023-05-07T06:38:30.335Z,5.07
2023-05-07T06:41:01.614Z,5.30
2023-05-07T06:43:33.370Z,5.63
2023-05-07T06:46:04.775Z,5.63
2023-05-07T06:48:36.086Z,5.30
2023-05-07T06:51:07.401Z,5.10
2023-05-07T06:53:38.680Z,5.30
2023-05-07T06:56:09.967Z,5.57
2023-05-07T06:58:41.336Z,5.97
2023-05-07T07:01:12.641Z,5.50
2023-05-07T07:03:43.919Z,4.63
2023-05-07T07:06:15.644Z,5.10
2023-05-07T07:08:47.011Z,4.90
2023-05-07T07:11:18.292Z,5.00
2023-05-07T07:13:49.561Z,4.77
2023-05-07T07:16:22.274Z,5.40
2023-05-07T07:18:53.576Z,4.37
2023-05-07T07:21:24.897Z,5.00
2023-05-07T07:23:56.260Z,4.73
2023-05-07T07:26:27.616Z,4.97
2023-05-07T07:28:58.879Z,4.97
2023-05-07T07:31:30.436Z,4.90
2023-05-07T07:34:01.723Z,4.50
2023-05-07T07:36:42.822Z,4.50
2023-05-07T07:39:16.886Z,4.17
2023-05-07T07:41:48.260Z,4.77
2023-05-07T07:44:19.616Z,4.23
2023-05-07T07:46:51.648Z,3.80
2023-05-07T07:49:23.056Z,4.60
2023-05-07T07:51:54.466Z,4.40
2023-05-07T07:54:26.019Z,4.07
2023-05-07T07:56:57.853Z,4.13
2023-05-07T07:59:29.145Z,4.00
2023-05-07T08:02:00.641Z,3.70
2023-05-07T08:04:33.991Z,3.70
2023-05-07T08:07:05.636Z,3.60
2023-05-07T08:09:38.259Z,3.87
2023-05-07T08:12:09.641Z,3.93
2023-05-07T08:14:41.430Z,3.87
2023-05-07T08:17:13.176Z,4.73
2023-05-07T08:19:44.576Z,3.73
2023-05-07T08:22:16.509Z,4.20
2023-05-07T08:24:47.827Z,3.70
2023-05-07T08:27:19.112Z,3.80
2023-05-07T08:29:50.820Z,4.30
2023-05-07T08:32:22.406Z,4.63
2023-05-07T08:34:53.871Z,4.33
2023-05-07T08:37:25.171Z,4.17
2023-05-07T08:39:56.587Z,4.60
2023-05-07T08:42:29.412Z,3.83
2023-05-07T08:45:00.994Z,4.20
2023-05-07T08:47:39.939Z,3.47
2023-05-07T08:50:12.629Z,3.33
2023-05-07T08:52:44.181Z,3.60
2023-05-07T08:55:16.074Z,3.80
2023-05-07T08:57:48.851Z,3.77
2023-05-07T09:00:20.583Z,3.83
2023-05-07T09:02:53.701Z,4.20
2023-05-07T09:05:25.046Z,4.20
2023-05-07T09:07:58.333Z,3.90
2023-05-07T09:10:30.751Z,4.03
2023-05-07T09:13:03.958Z,3.47
2023-05-07T09:15:35.420Z,3.87
2023-05-07T09:18:06.766Z,4.40
2023-05-07T09:20:39.072Z,3.57
2023-05-07T09:23:10.537Z,3.83
2023-05-07T09:25:41.902Z,3.90
2023-05-07T09:28:13.199Z,4.23
2023-05-07T09:30:45.582Z,3.93
2023-05-07T09:33:16.909Z,3.60
2023-05-07T09:35:52.264Z,4.00
2023-05-07T09:38:23.828Z,3.72
2023-05-07T09:41:15.380Z,3.67
2023-05-07T09:43:46.699Z,3.90
2023-05-07T09:46:21.265Z,3.93
2023-05-07T09:48:58.609Z,3.90
2023-05-07T09:51:34.930Z,3.17
2023-05-07T09:54:07.605Z,3.23
2023-05-07T09:56:42.537Z,3.13
2023-05-07T09:59:16.443Z,3.07
2023-05-07T10:01:47.862Z,3.03
2023-05-07T10:04:20.720Z,3.63
2023-05-07T10:06:52.312Z,3.17
2023-05-07T10:09:23.985Z,3.50
2023-05-07T10:11:55.895Z,3.90
2023-05-07T10:14:28.940Z,4.70
2023-05-07T10:17:00.590Z,3.23
2023-05-07T10:19:34.000Z,3.33
2023-05-07T10:22:07.242Z,3.60
2023-05-07T10:24:38.904Z,3.60
2023-05-07T10:27:13.329Z,3.43
2023-05-07T10:29:51.081Z,3.47
2023-05-07T10:32:40.935Z,3.87
2023-05-07T10:35:21.241Z,3.40
2023-05-07T10:37:53.125Z,3.83
2023-05-07T10:40:24.745Z,3.63
2023-05-07T10:42:57.163Z,4.50
2023-05-07T10:45:29.684Z,3.50
2023-05-07T10:50:50.051Z,3.75
2023-05-07T10:53:25.035Z,3.57
2023-05-07T10:56:18.329Z,3.77
2023-05-07T10:58:49.676Z,3.70
2023-05-07T11:02:12.178Z,3.87
2023-05-07T11:04:43.829Z,4.17
2023-05-07T11:07:29.462Z,3.60
2023-05-07T11:10:04.739Z,3.40
2023-05-07T11:12:39.152Z,3.38
2023-05-07T11:15:12.926Z,3.73
2023-05-07T11:17:55.058Z,3.47
2023-05-07T11:20:52.753Z,3.20
2023-05-07T11:23:33.046Z,3.90
2023-05-07T11:26:06.816Z,3.13
2023-05-07T11:28:40.611Z,3.57
2023-05-07T11:31:12.535Z,3.50
2023-05-07T11:33:45.405Z,3.30
2023-05-07T11:36:16.825Z,4.03
2023-05-07T11:38:48.385Z,3.17
2023-05-07T11:41:22.003Z,3.13
2023-05-07T11:43:58.006Z,3.33
2023-05-07T11:49:02.293Z,2.97
2023-05-07T11:51:33.635Z,3.57
2023-05-07T11:54:09.531Z,3.27
2023-05-07T11:56:40.871Z,3.30
2023-05-07T11:59:12.299Z,3.43
2023-05-07T12:01:46.694Z,3.70
2023-05-07T12:04:21.956Z,3.05
2023-05-07T12:06:59.563Z,3.33
2023-05-07T12:09:33.739Z,3.40
2023-05-07T12:12:05.667Z,3.38
2023-05-07T12:14:41.073Z,3.15
2023-05-07T12:17:14.470Z,3.33
2023-05-07T12:19:46.935Z,3.17
2023-05-07T12:22:18.868Z,2.95
2023-05-07T12:24:57.337Z,3.13
2023-05-07T12:27:28.788Z,3.57
2023-05-07T12:30:00.351Z,3.00
2023-05-07T12:32:31.867Z,3.08
2023-05-07T12:35:03.352Z,2.88
2023-05-07T12:37:36.696Z,3.05
2023-05-07T12:40:12.222Z,3.27
2023-05-07T12:42:45.203Z,3.10
2023-05-07T12:45:17.614Z,3.17
2023-05-07T12:47:49.292Z,2.90
2023-05-07T12:50:21.965Z,3.93
2023-05-07T12:52:53.288Z,3.03
2023-05-07T12:55:24.619Z,3.07
2023-05-07T12:57:58.248Z,2.80
2023-05-07T13:00:39.570Z,3.10
2023-05-07T13:03:11.888Z,2.50
2023-05-07T13:05:43.316Z,3.07
2023-05-07T13:08:24.531Z,2.97
2023-05-07T13:10:56.047Z,3.20
2023-05-07T13:13:28.426Z,2.60
2023-05-07T13:16:06.368Z,2.70
2023-05-07T13:18:40.325Z,2.70
2023-05-07T13:21:13.959Z,2.53
2023-05-07T13:23:45.277Z,2.17
2023-05-07T13:26:26.377Z,2.93
2023-05-07T13:28:58.503Z,2.47
2023-05-07T13:31:29.805Z,2.90
2023-05-07T13:34:01.155Z,2.75
2023-05-07T13:36:36.301Z,3.15
2023-05-07T13:39:07.603Z,2.88
2023-05-07T13:41:38.959Z,2.70
2023-05-07T13:44:10.799Z,3.28
2023-05-07T13:46:42.105Z,2.90
2023-05-07T13:49:13.858Z,2.95
2023-05-07T13:51:45.194Z,3.05
2023-05-07T13:54:16.843Z,3.38
2023-05-07T13:56:48.388Z,3.30
2023-05-07T13:59:19.739Z,2.75
2023-05-07T14:01:51.122Z,2.97
2023-05-07T14:04:22.657Z,2.78
2023-05-07T14:06:53.970Z,2.65
2023-05-07T14:09:25.532Z,3.53
2023-05-07T14:11:56.809Z,2.90
2023-05-07T14:14:28.576Z,3.13
2023-05-07T14:16:59.933Z,2.75
2023-05-07T14:19:31.477Z,2.75
2023-05-07T14:22:03.407Z,3.00
2023-05-07T14:24:38.747Z,2.92
2023-05-07T14:27:10.400Z,2.65
2023-05-07T14:29:41.981Z,2.88
2023-05-07T14:32:13.632Z,2.47
2023-05-07T14:34:46.154Z,2.42
2023-05-07T14:37:17.475Z,2.58
2023-05-07T14:39:50.546Z,2.63
2023-05-07T14:42:22.358Z,2.17
2023-05-07T14:44:54.002Z,2.50
2023-05-07T14:47:25.571Z,2.65
2023-05-07T14:49:58.257Z,2.60
2023-05-07T14:52:29.550Z,2.85
2023-05-07T14:55:01.186Z,2.42
2023-05-07T14:57:35.738Z,2.10
2023-05-07T15:00:08.030Z,2.35
2023-05-07T15:02:39.654Z,2.38
2023-05-07T15:05:11.338Z,2.33
2023-05-07T15:07:42.842Z,2.33
2023-05-07T15:10:14.249Z,2.78
2023-05-07T15:12:45.549Z,2.45
2023-05-07T15:15:16.979Z,2.58
2023-05-07T15:17:48.320Z,2.50
2023-05-07T15:20:20.228Z,2.20
2023-05-07T15:22:51.529Z,2.20
2023-05-07T15:25:23.607Z,2.22
2023-05-07T15:27:54.885Z,2.53
2023-05-07T15:30:26.356Z,1.95
2023-05-07T15:32:57.870Z,2.13
2023-05-07T15:35:29.437Z,1.80
2023-05-07T15:38:00.757Z,2.10
2023-05-07T15:40:32.311Z,1.77
2023-05-07T15:43:03.735Z,1.55
2023-05-07T15:45:41.186Z,1.80
2023-05-07T15:48:12.737Z,1.88
2023-05-07T15:50:44.067Z,2.10
2023-05-07T15:53:15.566Z,2.13
2023-05-07T15:55:49.533Z,1.98
2023-05-07T15:58:21.139Z,2.00
2023-05-07T16:00:53.584Z,1.77
2023-05-07T16:03:24.954Z,1.88
2023-05-07T16:06:00.912Z,1.80
2023-05-07T16:11:04.897Z,1.80
2023-05-07T16:13:36.973Z,2.00
2023-05-07T16:16:09.471Z,1.88
2023-05-07T16:18:40.936Z,1.95
2023-05-07T16:21:12.860Z,1.92
2023-05-07T16:23:44.280Z,1.90
2023-05-07T16:26:15.826Z,2.05
2023-05-07T16:28:47.288Z,1.85
2023-05-07T16:31:19.346Z,2.13
2023-05-07T16:33:50.864Z,1.73
2023-05-07T16:36:22.870Z,2.00
2023-05-07T16:38:54.297Z,2.00
2023-05-07T16:41:26.057Z,1.45
2023-05-07T16:43:58.640Z,1.73
2023-05-07T16:46:30.242Z,1.88
2023-05-07T16:49:01.671Z,1.70
2023-05-07T16:51:36.093Z,1.70
2023-05-07T16:54:07.885Z,1.70
2023-05-07T16:56:39.506Z,1.67
2023-05-07T16:59:10.961Z,1.75
2023-05-07T17:01:42.774Z,1.70
2023-05-07T17:04:14.424Z,1.80
2023-05-07T17:06:46.028Z,1.55
2023-05-07T17:09:17.330Z,1.73
2023-05-07T17:11:48.735Z,1.75
2023-05-07T17:14:20.080Z,2.17
2023-05-07T17:16:51.487Z,1.70
2023-05-07T17:19:23.129Z,1.80
2023-05-07T17:21:56.627Z,1.60
2023-05-07T17:24:27.953Z,2.67
2023-05-07T17:26:59.288Z,1.63
2023-05-07T17:29:30.904Z,1.60
2023-05-07T17:32:02.303Z,1.57
2023-05-07T17:34:33.747Z,1.67
2023-05-07T17:37:05.196Z,1.60
2023-05-07T17:39:36.585Z,1.50
2023-05-07T17:42:07.909Z,1.83
2023-05-07T17:44:41.947Z,1.73
2023-05-07T17:47:14.327Z,1.50
2023-05-07T17:49:45.684Z,2.27
2023-05-07T17:52:16.985Z,1.70
2023-05-07T17:54:48.259Z,1.60
2023-05-07T17:57:21.191Z,1.47
2023-05-07T17:59:52.549Z,1.30
2023-05-07T18:02:24.149Z,1.47
2023-05-07T18:04:55.559Z,1.60
2023-05-07T18:07:26.920Z,1.40
2023-05-07T18:09:58.201Z,1.60
2023-05-07T18:12:29.599Z,1.83
2023-05-07T18:15:01.020Z,1.80
2023-05-07T18:17:32.460Z,1.40
2023-05-07T18:20:09.026Z,1.60
2023-05-07T18:22:40.502Z,1.70
2023-05-07T18:25:12.154Z,1.50
2023-05-07T18:27:43.435Z,1.97
2023-05-07T18:30:15.003Z,1.70
2023-05-07T18:32:46.437Z,1.37
2023-05-07T18:35:17.850Z,1.33
2023-05-07T18:37:49.224Z,1.63
2023-05-07T18:40:21.842Z,1.80
2023-05-07T18:42:54.558Z,1.60
2023-05-07T18:45:27.188Z,1.50
2023-05-07T18:48:02.053Z,1.40
2023-05-07T18:50:37.970Z,1.53
2023-05-07T18:53:11.809Z,1.20
2023-05-07T18:55:46.246Z,1.73
2023-05-07T18:58:19.739Z,1.40
2023-05-07T19:00:51.408Z,1.67
2023-05-07T19:03:23.805Z,1.80
2023-05-07T19:05:55.800Z,1.43
2023-05-07T19:08:27.086Z,1.83
2023-05-07T19:10:58.737Z,2.00
2023-05-07T19:13:30.277Z,2.00
2023-05-07T19:16:01.808Z,1.67
2023-05-07T19:18:33.163Z,1.70
2023-05-07T19:21:04.448Z,2.03
2023-05-07T19:23:41.680Z,1.70
2023-05-07T19:26:13.086Z,1.50
2023-05-07T19:28:45.512Z,1.97
2023-05-07T19:31:21.535Z,2.07
2023-05-07T19:33:54.338Z,2.20
2023-05-07T19:36:26.241Z,2.10
2023-05-07T19:38:57.501Z,1.93
2023-05-07T19:41:29.010Z,2.10
2023-05-07T19:44:00.369Z,1.97
2023-05-07T19:46:31.855Z,1.90
2023-05-07T19:49:03.249Z,1.50
2023-05-07T19:51:34.511Z,1.97
2023-05-07T19:54:05.934Z,1.97
2023-05-07T19:56:37.498Z,2.27
2023-05-07T19:59:08.784Z,2.37
2023-05-07T20:01:40.263Z,1.90
2023-05-07T20:04:11.657Z,2.00
2023-05-07T20:06:42.918Z,2.40
2023-05-07T20:09:14.270Z,2.50
2023-05-07T20:11:45.560Z,2.10
2023-05-07T20:14:16.828Z,2.13
2023-05-07T20:16:48.176Z,1.80
2023-05-07T20:19:19.649Z,2.00
2023-05-07T20:21:51.318Z,2.57
2023-05-07T20:24:23.389Z,2.40
2023-05-07T20:26:54.727Z,2.00
2023-05-07T20:29:26.345Z,2.07
2023-05-07T20:31:57.690Z,2.50
2023-05-07T20:34:28.993Z,2.17
2023-05-07T20:37:00.350Z,1.93
2023-05-07T20:39:31.773Z,2.20
2023-05-07T20:42:03.207Z,2.23
2023-05-07T20:44:37.992Z,2.13
2023-05-07T20:47:09.543Z,1.77
2023-05-07T20:49:41.171Z,1.93
2023-05-07T20:52:12.433Z,2.17
2023-05-07T20:54:44.385Z,1.80
2023-05-07T20:57:16.521Z,2.17
2023-05-07T20:59:47.869Z,2.30
2023-05-07T21:02:19.288Z,1.90
2023-05-07T21:04:52.201Z,2.00
2023-05-07T21:07:23.496Z,2.27
2023-05-07T21:09:54.930Z,2.40
2023-05-07T21:12:26.210Z,2.37
2023-05-07T21:14:57.544Z,2.17
2023-05-07T21:17:31.554Z,2.20
2023-05-07T21:20:03.827Z,2.40
2023-05-07T21:22:35.370Z,2.30
2023-05-07T21:25:06.987Z,2.33
2023-05-07T21:27:38.347Z,1.90
2023-05-07T21:30:10.735Z,1.83
2023-05-07T21:32:42.383Z,2.10
2023-05-07T21:35:15.211Z,2.20
2023-05-07T21:37:46.586Z,1.73
2023-05-07T21:40:18.086Z,2.00
2023-05-07T21:42:49.383Z,2.07
2023-05-07T21:45:20.852Z,2.47
2023-05-07T21:47:52.264Z,2.00
2023-05-07T21:50:23.861Z,2.03
2023-05-07T21:52:55.233Z,2.20
2023-05-07T21:55:26.506Z,1.90
2023-05-07T21:58:04.918Z,2.10
2023-05-07T22:00:37.166Z,2.57
2023-05-07T22:03:08.531Z,2.50
2023-05-07T22:05:39.896Z,2.10
2023-05-07T22:08:11.432Z,2.33
2023-05-07T22:10:43.213Z,2.00
2023-05-07T22:13:14.539Z,2.40
2023-05-07T22:15:56.586Z,2.17
2023-05-07T22:18:29.007Z,2.30
2023-05-07T22:21:00.405Z,2.40
2023-05-07T22:23:31.747Z,2.30
2023-05-07T22:26:09.969Z,2.43
2023-05-07T22:28:41.334Z,2.07
2023-05-07T22:31:12.782Z,2.50
2023-05-07T22:33:44.223Z,2.30
2023-05-07T22:36:15.626Z,2.57
2023-05-07T22:38:46.927Z,2.20
2023-05-07T22:41:18.388Z,2.50
2023-05-07T22:43:49.647Z,2.77
2023-05-07T22:46:21.068Z,2.60
2023-05-07T22:48:52.422Z,2.43
2023-05-07T22:51:23.772Z,2.50
2023-05-07T22:53:55.083Z,2.33
2023-05-07T22:56:26.399Z,2.33
2023-05-07T22:58:57.723Z,2.67
2023-05-07T23:01:29.153Z,2.33
2023-05-07T23:04:00.498Z,2.97
2023-05-07T23:06:31.923Z,1.97
2023-05-07T23:09:04.058Z,2.60
2023-05-07T23:11:36.471Z,2.50
2023-05-07T23:14:08.293Z,2.70
2023-05-07T23:16:39.697Z,2.37
2023-05-07T23:19:11.565Z,3.00
2023-05-07T23:21:42.862Z,2.67
2023-05-07T23:24:14.178Z,2.20
2023-05-07T23:26:45.455Z,3.03
2023-05-07T23:29:16.815Z,2.83
2023-05-07T23:31:48.080Z,2.30
2023-05-07T23:34:23.732Z,2.37
2023-05-07T23:36:55.474Z,2.33
2023-05-07T23:39:26.742Z,2.60
2023-05-07T23:41:58.153Z,2.47
2023-05-07T23:44:29.503Z,2.50
2023-05-07T23:47:00.815Z,2.80
2023-05-07T23:49:32.120Z,2.50
2023-05-07T23:52:03.420Z,2.67
2023-05-07T23:54:34.793Z,2.50
2023-05-07T23:57:06.166Z,2.40
2023-05-07T23:59:37.425Z,2.50
